In Rescue
 
Open Full Screen Window  High Contrast Mode
Wind Gusting 00 knots
07
May 13, 2021 4:11 PM GMT
Weather Information
Wind Direction
  020 °
Wind Speed
  07 kt (8 mph)
Wind Gust
  00 kt (0 mph)
Variable Wind
320°
050°
Altimeter
30.25 in
Visibility
10 SM
Temperature
18° C
64° F
Dewpoint
-02° C
28° F
Humidity
26%
Sky Condition
Scattered @ 9,000 ft
VFR

METAR K22N 131611Z AUTO 02007KT 328V058 10SM SCT090 18/M02 A3025 RMK AO2

FAA Disclaimer: The data displayed is for advisory purposes only and is not to be used for flight planning or operations.